sensor_id;sensor_type;location;lat;lon;timestamp;pressure;altitude;pressure_sealevel;temperature;humidity
69173;BME280;56280;49.662;8.408;2023-03-31T00:01:25;99958.06;;;13.06;71.91
69173;BME280;56280;49.662;8.408;2023-03-31T00:03:51;99958.91;;;12.70;73.31
69173;BME280;56280;49.662;8.408;2023-03-31T00:06:16;99951.13;;;12.95;72.96
69173;BME280;56280;49.662;8.408;2023-03-31T00:08:45;99950.53;;;13.01;72.50
69173;BME280;56280;49.662;8.408;2023-03-31T00:11:15;99937.59;;;12.88;73.10
69173;BME280;56280;49.662;8.408;2023-03-31T00:13:40;99942.84;;;12.98;73.11
69173;BME280;56280;49.662;8.408;2023-03-31T00:16:08;99944.25;;;13.10;72.45
69173;BME280;56280;49.662;8.408;2023-03-31T00:18:34;99943.13;;;13.13;72.28
69173;BME280;56280;49.662;8.408;2023-03-31T00:21:25;99938.22;;;13.26;71.64
69173;BME280;56280;49.662;8.408;2023-03-31T00:24:07;99931.00;;;13.37;71.47
69173;BME280;56280;49.662;8.408;2023-03-31T00:26:33;99929.69;;;13.41;71.33
69173;BME280;56280;49.662;8.408;2023-03-31T00:29:00;99919.31;;;13.38;71.23
69173;BME280;56280;49.662;8.408;2023-03-31T00:31:26;99921.31;;;13.36;71.57
69173;BME280;56280;49.662;8.408;2023-03-31T00:33:52;99917.81;;;13.35;71.63
69173;BME280;56280;49.662;8.408;2023-03-31T00:36:18;99913.47;;;13.16;72.08
69173;BME280;56280;49.662;8.408;2023-03-31T00:38:47;99889.78;;;13.13;72.56
69173;BME280;56280;49.662;8.408;2023-03-31T00:41:12;99901.53;;;13.20;71.89
69173;BME280;56280;49.662;8.408;2023-03-31T00:43:38;99875.94;;;13.09;71.97
69173;BME280;56280;49.662;8.408;2023-03-31T00:46:10;99884.34;;;13.23;71.92
69173;BME280;56280;49.662;8.408;2023-03-31T00:48:52;99873.94;;;13.11;72.07
69173;BME280;56280;49.662;8.408;2023-03-31T00:51:20;99884.59;;;13.11;72.35
69173;BME280;56280;49.662;8.408;2023-03-31T00:53:50;99858.28;;;13.17;72.15
69173;BME280;56280;49.662;8.408;2023-03-31T00:56:19;99866.16;;;13.18;71.61
69173;BME280;56280;49.662;8.408;2023-03-31T00:58:45;99859.81;;;13.19;71.81
69173;BME280;56280;49.662;8.408;2023-03-31T01:01:17;99847.41;;;13.10;71.44
69173;BME280;56280;49.662;8.408;2023-03-31T01:03:45;99851.00;;;13.19;71.76
69173;BME280;56280;49.662;8.408;2023-03-31T01:06:12;99860.66;;;13.20;71.55
69173;BME280;56280;49.662;8.408;2023-03-31T01:08:38;99849.09;;;13.11;71.66
69173;BME280;56280;49.662;8.408;2023-03-31T01:11:05;99853.78;;;12.91;71.93
69173;BME280;56280;49.662;8.408;2023-03-31T01:13:33;99836.84;;;12.74;72.88
69173;BME280;56280;49.662;8.408;2023-03-31T01:16:00;99825.25;;;12.83;71.84
69173;BME280;56280;49.662;8.408;2023-03-31T01:18:26;99831.06;;;13.05;71.17
69173;BME280;56280;49.662;8.408;2023-03-31T01:21:10;99825.34;;;13.26;70.25
69173;BME280;56280;49.662;8.408;2023-03-31T01:32:18;99822.75;;;13.34;69.56
69173;BME280;56280;49.662;8.408;2023-03-31T01:37:38;99817.09;;;13.11;70.10
69173;BME280;56280;49.662;8.408;2023-03-31T01:43:09;99798.06;;;13.32;69.72
69173;BME280;56280;49.662;8.408;2023-03-31T01:45:49;99786.28;;;13.17;69.88
69173;BME280;56280;49.662;8.408;2023-03-31T01:48:19;99789.28;;;13.40;69.64
69173;BME280;56280;49.662;8.408;2023-03-31T01:50:57;99789.78;;;13.43;69.58
69173;BME280;56280;49.662;8.408;2023-03-31T01:53:36;99764.44;;;13.47;69.02
69173;BME280;56280;49.662;8.408;2023-03-31T01:56:10;99760.44;;;13.43;68.78
69173;BME280;56280;49.662;8.408;2023-03-31T01:58:41;99763.81;;;13.54;68.56
69173;BME280;56280;49.662;8.408;2023-03-31T02:01:14;99755.00;;;13.61;68.06
69173;BME280;56280;49.662;8.408;2023-03-31T02:03:52;99756.81;;;13.53;67.91
69173;BME280;56280;49.662;8.408;2023-03-31T02:06:23;99757.81;;;13.52;67.78
69173;BME280;56280;49.662;8.408;2023-03-31T02:08:54;99750.31;;;13.55;67.37
69173;BME280;56280;49.662;8.408;2023-03-31T02:11:21;99749.47;;;13.55;67.34
69173;BME280;56280;49.662;8.408;2023-03-31T02:13:49;99732.09;;;13.50;67.25
69173;BME280;56280;49.662;8.408;2023-03-31T02:16:19;99723.13;;;13.52;67.11
69173;BME280;56280;49.662;8.408;2023-03-31T02:18:50;99740.84;;;13.69;66.86
69173;BME280;56280;49.662;8.408;2023-03-31T02:21:18;99733.84;;;13.68;66.95
69173;BME280;56280;49.662;8.408;2023-03-31T02:23:45;99733.91;;;13.34;68.47
69173;BME280;56280;49.662;8.408;2023-03-31T02:26:15;99733.19;;;13.31;69.38
69173;BME280;56280;49.662;8.408;2023-03-31T02:28:42;99746.09;;;13.10;69.95
69173;BME280;56280;49.662;8.408;2023-03-31T02:31:22;99722.28;;;13.17;70.34
69173;BME280;56280;49.662;8.408;2023-03-31T02:33:50;99716.53;;;12.95;69.65
69173;BME280;56280;49.662;8.408;2023-03-31T02:36:16;99712.44;;;12.83;69.94
69173;BME280;56280;49.662;8.408;2023-03-31T02:38:45;99718.09;;;12.80;69.96
69173;BME280;56280;49.662;8.408;2023-03-31T02:41:11;99727.03;;;12.97;69.24
69173;BME280;56280;49.662;8.408;2023-03-31T02:43:37;99720.88;;;12.96;68.85
69173;BME280;56280;49.662;8.408;2023-03-31T02:46:02;99717.41;;;13.12;68.47
69173;BME280;56280;49.662;8.408;2023-03-31T02:48:33;99695.19;;;12.95;68.52
69173;BME280;56280;49.662;8.408;2023-03-31T02:59:37;99655.25;;;13.11;67.42
69173;BME280;56280;49.662;8.408;2023-03-31T03:02:14;99649.31;;;13.26;66.74
69173;BME280;56280;49.662;8.408;2023-03-31T03:07:32;99608.22;;;13.45;65.48
69173;BME280;56280;49.662;8.408;2023-03-31T03:10:32;99621.22;;;13.48;65.66
69173;BME280;56280;49.662;8.408;2023-03-31T03:15:48;99616.53;;;13.34;66.27
69173;BME280;56280;49.662;8.408;2023-03-31T03:18:15;99603.38;;;13.57;65.43
69173;BME280;56280;49.662;8.408;2023-03-31T03:20:41;99597.38;;;13.55;65.52
69173;BME280;56280;49.662;8.408;2023-03-31T03:23:07;99595.38;;;13.65;65.26
69173;BME280;56280;49.662;8.408;2023-03-31T03:25:32;99584.38;;;13.52;65.56
69173;BME280;56280;49.662;8.408;2023-03-31T03:27:58;99576.84;;;13.63;65.66
69173;BME280;56280;49.662;8.408;2023-03-31T03:30:23;99563.69;;;13.54;66.11
69173;BME280;56280;49.662;8.408;2023-03-31T03:32:49;99555.19;;;13.50;65.54
69173;BME280;56280;49.662;8.408;2023-03-31T03:35:14;99551.69;;;13.74;65.54
69173;BME280;56280;49.662;8.408;2023-03-31T03:37:40;99535.66;;;13.82;65.11
69173;BME280;56280;49.662;8.408;2023-03-31T03:40:06;99543.00;;;13.80;64.85
69173;BME280;56280;49.662;8.408;2023-03-31T03:42:32;99531.31;;;13.73;65.03
69173;BME280;56280;49.662;8.408;2023-03-31T03:44:58;99535.16;;;13.71;65.16
69173;BME280;56280;49.662;8.408;2023-03-31T03:47:23;99508.34;;;13.56;65.18
69173;BME280;56280;49.662;8.408;2023-03-31T03:49:48;99497.81;;;13.54;65.90
69173;BME280;56280;49.662;8.408;2023-03-31T03:52:14;99495.16;;;13.54;65.79
69173;BME280;56280;49.662;8.408;2023-03-31T03:54:40;99487.66;;;13.49;66.08
69173;BME280;56280;49.662;8.408;2023-03-31T03:57:06;99498.66;;;13.55;66.26
69173;BME280;56280;49.662;8.408;2023-03-31T03:59:31;99472.78;;;13.55;65.94
69173;BME280;56280;49.662;8.408;2023-03-31T04:01:56;99482.09;;;13.26;66.92
69173;BME280;56280;49.662;8.408;2023-03-31T04:04:22;99493.00;;;13.33;67.19
69173;BME280;56280;49.662;8.408;2023-03-31T04:06:47;99501.97;;;13.48;66.59
69173;BME280;56280;49.662;8.408;2023-03-31T04:09:12;99484.28;;;13.47;66.53
69173;BME280;56280;49.662;8.408;2023-03-31T04:11:38;99493.16;;;13.56;66.12
69173;BME280;56280;49.662;8.408;2023-03-31T04:14:03;99474.31;;;13.41;66.09
69173;BME280;56280;49.662;8.408;2023-03-31T04:16:28;99493.97;;;13.40;66.62
69173;BME280;56280;49.662;8.408;2023-03-31T04:18:54;99484.97;;;13.49;66.46
69173;BME280;56280;49.662;8.408;2023-03-31T04:21:24;99473.31;;;13.42;66.61
69173;BME280;56280;49.662;8.408;2023-03-31T04:23:51;99465.97;;;13.44;66.59
69173;BME280;56280;49.662;8.408;2023-03-31T04:26:24;99456.97;;;13.37;67.23
69173;BME280;56280;49.662;8.408;2023-03-31T04:28:56;99458.47;;;13.56;66.63
69173;BME280;56280;49.662;8.408;2023-03-31T04:31:25;99445.78;;;13.58;66.93
69173;BME280;56280;49.662;8.408;2023-03-31T04:33:54;99441.63;;;13.39;67.22
69173;BME280;56280;49.662;8.408;2023-03-31T04:36:20;99428.59;;;13.28;67.54
69173;BME280;56280;49.662;8.408;2023-03-31T04:38:47;99432.28;;;13.27;67.89
69173;BME280;56280;49.662;8.408;2023-03-31T04:41:15;99449.47;;;13.32;67.98
69173;BME280;56280;49.662;8.408;2023-03-31T04:43:41;99458.31;;;13.33;68.56
69173;BME280;56280;49.662;8.408;2023-03-31T04:46:06;99450.25;;;12.92;70.77
69173;BME280;56280;49.662;8.408;2023-03-31T04:48:31;99438.22;;;12.71;71.74
69173;BME280;56280;49.662;8.408;2023-03-31T04:50:57;99446.44;;;12.94;72.47
69173;BME280;56280;49.662;8.408;2023-03-31T04:53:22;99432.44;;;13.01;72.79
69173;BME280;56280;49.662;8.408;2023-03-31T04:55:48;99443.78;;;13.11;72.61
69173;BME280;56280;49.662;8.408;2023-03-31T04:58:14;99430.28;;;12.96;73.19
69173;BME280;56280;49.662;8.408;2023-03-31T05:00:39;99439.09;;;12.88;73.01
69173;BME280;56280;49.662;8.408;2023-03-31T05:03:05;99429.41;;;12.79;73.89
69173;BME280;56280;49.662;8.408;2023-03-31T05:05:30;99432.25;;;13.02;73.89
69173;BME280;56280;49.662;8.408;2023-03-31T05:07:56;99421.09;;;12.90;74.02
69173;BME280;56280;49.662;8.408;2023-03-31T05:10:21;99415.94;;;12.89;74.48
69173;BME280;56280;49.662;8.408;2023-03-31T05:12:46;99405.59;;;13.02;74.27
69173;BME280;56280;49.662;8.408;2023-03-31T05:15:13;99398.63;;;12.93;73.91
69173;BME280;56280;49.662;8.408;2023-03-31T05:17:38;99422.13;;;13.22;73.54
69173;BME280;56280;49.662;8.408;2023-03-31T05:20:04;99419.94;;;13.09;73.64
69173;BME280;56280;49.662;8.408;2023-03-31T05:22:35;99405.59;;;12.94;74.33
69173;BME280;56280;49.662;8.408;2023-03-31T05:25:01;99410.59;;;12.89;74.48
69173;BME280;56280;49.662;8.408;2023-03-31T05:27:27;99390.44;;;12.78;74.82
69173;BME280;56280;49.662;8.408;2023-03-31T05:29:52;99393.25;;;12.60;75.88
69173;BME280;56280;49.662;8.408;2023-03-31T05:32:17;99375.38;;;12.36;76.67
69173;BME280;56280;49.662;8.408;2023-03-31T05:34:42;99376.09;;;12.54;77.68
69173;BME280;56280;49.662;8.408;2023-03-31T05:37:08;99361.25;;;12.27;78.14
69173;BME280;56280;49.662;8.408;2023-03-31T05:39:33;99357.53;;;12.20;79.11
69173;BME280;56280;49.662;8.408;2023-03-31T05:41:59;99357.94;;;12.33;78.87
69173;BME280;56280;49.662;8.408;2023-03-31T05:44:24;99345.59;;;12.32;79.12
69173;BME280;56280;49.662;8.408;2023-03-31T05:46:51;99341.88;;;12.09;80.62
69173;BME280;56280;49.662;8.408;2023-03-31T05:49:17;99338.19;;;11.93;81.00
69173;BME280;56280;49.662;8.408;2023-03-31T05:51:42;99351.00;;;11.98;81.36
69173;BME280;56280;49.662;8.408;2023-03-31T05:54:07;99308.84;;;11.85;81.76
69173;BME280;56280;49.662;8.408;2023-03-31T05:56:33;99329.19;;;11.94;81.96
69173;BME280;56280;49.662;8.408;2023-03-31T05:58:59;99331.22;;;12.09;81.53
69173;BME280;56280;49.662;8.408;2023-03-31T06:01:25;99326.22;;;12.06;82.16
69173;BME280;56280;49.662;8.408;2023-03-31T06:03:50;99305.22;;;11.94;82.79
69173;BME280;56280;49.662;8.408;2023-03-31T06:06:16;99292.84;;;11.77;84.24
69173;BME280;56280;49.662;8.408;2023-03-31T06:08:43;99254.31;;;11.38;85.94
69173;BME280;56280;49.662;8.408;2023-03-31T06:11:11;99268.25;;;11.32;87.66
69173;BME280;56280;49.662;8.408;2023-03-31T06:13:37;99257.31;;;11.43;87.59
69173;BME280;56280;49.662;8.408;2023-03-31T06:16:04;99247.50;;;11.44;87.72
69173;BME280;56280;49.662;8.408;2023-03-31T06:18:31;99254.50;;;11.45;87.62
69173;BME280;56280;49.662;8.408;2023-03-31T06:20:57;99248.53;;;11.51;87.68
69173;BME280;56280;49.662;8.408;2023-03-31T06:23:23;99224.56;;;11.43;86.86
69173;BME280;56280;49.662;8.408;2023-03-31T06:25:50;99233.78;;;11.65;86.63
69173;BME280;56280;49.662;8.408;2023-03-31T06:28:16;99219.09;;;11.53;86.63
69173;BME280;56280;49.662;8.408;2023-03-31T06:30:41;99218.63;;;11.65;87.68
69173;BME280;56280;49.662;8.408;2023-03-31T06:33:07;99221.28;;;11.57;87.38
69173;BME280;56280;49.662;8.408;2023-03-31T06:35:32;99183.00;;;11.34;87.61
69173;BME280;56280;49.662;8.408;2023-03-31T06:37:58;99201.16;;;11.46;87.76
69173;BME280;56280;49.662;8.408;2023-03-31T06:40:23;99229.50;;;11.72;87.87
69173;BME280;56280;49.662;8.408;2023-03-31T06:42:48;99211.53;;;11.74;86.91
69173;BME280;56280;49.662;8.408;2023-03-31T06:45:14;99222.63;;;11.61;87.69
69173;BME280;56280;49.662;8.408;2023-03-31T06:47:40;99216.44;;;11.53;88.32
69173;BME280;56280;49.662;8.408;2023-03-31T06:50:07;99215.44;;;11.45;88.98
69173;BME280;56280;49.662;8.408;2023-03-31T06:52:33;99216.09;;;11.47;88.93
69173;BME280;56280;49.662;8.408;2023-03-31T06:54:58;99206.25;;;11.40;88.52
69173;BME280;56280;49.662;8.408;2023-03-31T06:57:25;99210.75;;;11.39;89.06
69173;BME280;56280;49.662;8.408;2023-03-31T06:59:50;99196.63;;;11.39;88.94
69173;BME280;56280;49.662;8.408;2023-03-31T07:02:15;99194.34;;;11.60;88.43
69173;BME280;56280;49.662;8.408;2023-03-31T07:04:40;99195.88;;;11.71;87.75
69173;BME280;56280;49.662;8.408;2023-03-31T07:07:06;99191.97;;;11.32;88.81
69173;BME280;56280;49.662;8.408;2023-03-31T07:09:31;99196.50;;;11.48;89.38
69173;BME280;56280;49.662;8.408;2023-03-31T07:11:56;99209.19;;;11.71;89.93
69173;BME280;56280;49.662;8.408;2023-03-31T07:14:22;99207.97;;;11.57;89.81
69173;BME280;56280;49.662;8.408;2023-03-31T07:16:47;99201.31;;;11.45;90.95
69173;BME280;56280;49.662;8.408;2023-03-31T07:19:14;99211.84;;;11.63;90.63
69173;BME280;56280;49.662;8.408;2023-03-31T07:21:39;99216.13;;;11.64;91.95
69173;BME280;56280;49.662;8.408;2023-03-31T07:24:05;99226.69;;;11.82;89.66
69173;BME280;56280;49.662;8.408;2023-03-31T07:26:30;99253.34;;;11.98;89.49
69173;BME280;56280;49.662;8.408;2023-03-31T07:28:56;99239.88;;;11.92;89.87
69173;BME280;56280;49.662;8.408;2023-03-31T07:31:22;99293.78;;;12.02;88.59
69173;BME280;56280;49.662;8.408;2023-03-31T07:33:47;99296.13;;;11.28;92.30
69173;BME280;56280;49.662;8.408;2023-03-31T07:36:12;99302.25;;;10.50;97.69
69173;BME280;56280;49.662;8.408;2023-03-31T07:38:39;99279.16;;;10.94;100.00
69173;BME280;56280;49.662;8.408;2023-03-31T07:41:09;99267.66;;;11.20;100.00
69173;BME280;56280;49.662;8.408;2023-03-31T07:43:34;99266.41;;;11.32;100.00
69173;BME280;56280;49.662;8.408;2023-03-31T07:46:00;99264.38;;;11.26;99.63
69173;BME280;56280;49.662;8.408;2023-03-31T07:48:25;99249.31;;;11.35;99.11
69173;BME280;56280;49.662;8.408;2023-03-31T07:50:53;99247.38;;;11.11;97.67
69173;BME280;56280;49.662;8.408;2023-03-31T07:53:18;99208.47;;;11.10;99.44
69173;BME280;56280;49.662;8.408;2023-03-31T07:55:43;99230.91;;;11.50;99.05
69173;BME280;56280;49.662;8.408;2023-03-31T07:58:09;99226.91;;;11.54;98.69
69173;BME280;56280;49.662;8.408;2023-03-31T08:00:36;99228.34;;;11.91;97.76
69173;BME280;56280;49.662;8.408;2023-03-31T08:03:01;99227.97;;;11.70;95.48
69173;BME280;56280;49.662;8.408;2023-03-31T08:05:27;99249.25;;;11.70;95.58
69173;BME280;56280;49.662;8.408;2023-03-31T08:07:52;99239.59;;;11.60;96.12
69173;BME280;56280;49.662;8.408;2023-03-31T08:10:20;99242.94;;;11.62;94.94
69173;BME280;56280;49.662;8.408;2023-03-31T08:12:47;99237.09;;;11.59;95.05
69173;BME280;56280;49.662;8.408;2023-03-31T08:15:12;99241.09;;;11.63;93.82
69173;BME280;56280;49.662;8.408;2023-03-31T08:17:38;99237.78;;;11.69;93.39
69173;BME280;56280;49.662;8.408;2023-03-31T08:20:05;99237.09;;;11.59;93.98
69173;BME280;56280;49.662;8.408;2023-03-31T08:22:31;99237.25;;;11.57;95.04
69173;BME280;56280;49.662;8.408;2023-03-31T08:24:56;99231.91;;;11.49;95.84
69173;BME280;56280;49.662;8.408;2023-03-31T08:27:22;99224.59;;;11.51;96.62
69173;BME280;56280;49.662;8.408;2023-03-31T08:29:47;99216.97;;;11.56;97.41
69173;BME280;56280;49.662;8.408;2023-03-31T08:32:14;99213.78;;;11.53;97.65
69173;BME280;56280;49.662;8.408;2023-03-31T08:34:39;99219.50;;;11.66;97.42
69173;BME280;56280;49.662;8.408;2023-03-31T08:37:07;99224.81;;;11.66;97.03
69173;BME280;56280;49.662;8.408;2023-03-31T08:39:32;99206.53;;;11.71;97.23
69173;BME280;56280;49.662;8.408;2023-03-31T08:44:40;99212.78;;;11.45;97.35
69173;BME280;56280;49.662;8.408;2023-03-31T08:47:14;99192.03;;;11.57;96.63
69173;BME280;56280;49.662;8.408;2023-03-31T08:49:45;99197.66;;;11.46;95.22
69173;BME280;56280;49.662;8.408;2023-03-31T08:52:19;99200.38;;;11.62;95.27
69173;BME280;56280;49.662;8.408;2023-03-31T08:54:51;99211.09;;;12.03;96.34
69173;BME280;56280;49.662;8.408;2023-03-31T08:57:21;99198.41;;;12.71;97.67
69173;BME280;56280;49.662;8.408;2023-03-31T08:59:48;99189.09;;;12.67;95.29
69173;BME280;56280;49.662;8.408;2023-03-31T09:02:28;99202.97;;;12.46;92.67
69173;BME280;56280;49.662;8.408;2023-03-31T09:05:33;99205.25;;;12.49;92.28
69173;BME280;56280;49.662;8.408;2023-03-31T09:13:36;99201.91;;;12.80;88.92
69173;BME280;56280;49.662;8.408;2023-03-31T09:18:37;99211.03;;;12.86;87.98
69173;BME280;56280;49.662;8.408;2023-03-31T09:23:59;99217.22;;;12.78;89.65
69173;BME280;56280;49.662;8.408;2023-03-31T09:26:47;99172.13;;;12.52;88.13
69173;BME280;56280;49.662;8.408;2023-03-31T09:29:39;99219.59;;;12.15;87.91
69173;BME280;56280;49.662;8.408;2023-03-31T09:32:28;99210.88;;;11.72;88.00
69173;BME280;56280;49.662;8.408;2023-03-31T09:35:20;99238.38;;;11.46;89.40
69173;BME280;56280;49.662;8.408;2023-03-31T09:37:47;99241.13;;;11.28;88.85
69173;BME280;56280;49.662;8.408;2023-03-31T09:40:27;99204.66;;;10.78;88.88
69173;BME280;56280;49.662;8.408;2023-03-31T09:42:59;99210.19;;;10.58;88.75
69173;BME280;56280;49.662;8.408;2023-03-31T09:45:26;99189.06;;;10.31;88.14
69173;BME280;56280;49.662;8.408;2023-03-31T09:47:56;99172.53;;;10.37;90.80
69173;BME280;56280;49.662;8.408;2023-03-31T09:50:23;99178.69;;;10.19;89.78
69173;BME280;56280;49.662;8.408;2023-03-31T09:52:52;99171.19;;;10.15;89.34
69173;BME280;56280;49.662;8.408;2023-03-31T09:55:30;99184.56;;;10.31;89.13
69173;BME280;56280;49.662;8.408;2023-03-31T09:57:59;99177.13;;;10.53;88.49
69173;BME280;56280;49.662;8.408;2023-03-31T10:00:25;99141.22;;;10.75;87.93
69173;BME280;56280;49.662;8.408;2023-03-31T10:02:53;99160.59;;;10.93;87.25
69173;BME280;56280;49.662;8.408;2023-03-31T10:05:35;99150.69;;;11.20;87.72
69173;BME280;56280;49.662;8.408;2023-03-31T10:08:30;99146.31;;;11.54;89.45
69173;BME280;56280;49.662;8.408;2023-03-31T10:13:28;99149.34;;;12.41;87.50
69173;BME280;56280;49.662;8.408;2023-03-31T10:16:00;99127.81;;;12.67;87.52
69173;BME280;56280;49.662;8.408;2023-03-31T10:18:38;99126.06;;;12.91;85.89
69173;BME280;56280;49.662;8.408;2023-03-31T10:21:05;99120.59;;;13.24;84.76
69173;BME280;56280;49.662;8.408;2023-03-31T10:23:33;99124.06;;;13.24;82.67
69173;BME280;56280;49.662;8.408;2023-03-31T10:26:00;99123.31;;;13.47;82.82
69173;BME280;56280;49.662;8.408;2023-03-31T10:28:30;99116.16;;;13.71;80.48
69173;BME280;56280;49.662;8.408;2023-03-31T10:30:58;99121.25;;;13.80;80.35
69173;BME280;56280;49.662;8.408;2023-03-31T10:33:30;99122.25;;;14.02;79.62
69173;BME280;56280;49.662;8.408;2023-03-31T10:36:00;99115.66;;;14.28;79.11
69173;BME280;56280;49.662;8.408;2023-03-31T10:38:33;99108.28;;;14.15;76.76
69173;BME280;56280;49.662;8.408;2023-03-31T10:41:00;99103.22;;;14.20;76.40
69173;BME280;56280;49.662;8.408;2023-03-31T10:43:29;99083.88;;;14.18;75.83
69173;BME280;56280;49.662;8.408;2023-03-31T10:45:57;99102.84;;;14.23;75.66
69173;BME280;56280;49.662;8.408;2023-03-31T10:48:32;99084.34;;;14.22;75.75
69173;BME280;56280;49.662;8.408;2023-03-31T10:53:45;99115.50;;;14.45;74.92
69173;BME280;56280;49.662;8.408;2023-03-31T10:56:23;99115.91;;;14.86;74.87
69173;BME280;56280;49.662;8.408;2023-03-31T11:10:09;99100.34;;;15.48;73.34
69173;BME280;56280;49.662;8.408;2023-03-31T11:18:05;99078.13;;;15.69;70.79
69173;BME280;56280;49.662;8.408;2023-03-31T11:21:09;99083.59;;;15.39;70.08
69173;BME280;56280;49.662;8.408;2023-03-31T11:26:15;99082.81;;;15.24;70.11
69173;BME280;56280;49.662;8.408;2023-03-31T11:29:10;99067.75;;;15.01;69.31
69173;BME280;56280;49.662;8.408;2023-03-31T11:35:06;99072.94;;;14.88;69.84
69173;BME280;56280;49.662;8.408;2023-03-31T11:40:33;99055.25;;;14.72;68.89
69173;BME280;56280;49.662;8.408;2023-03-31T11:43:05;99067.59;;;14.88;68.26
69173;BME280;56280;49.662;8.408;2023-03-31T11:45:39;99057.38;;;14.76;67.33
69173;BME280;56280;49.662;8.408;2023-03-31T11:48:25;99080.84;;;14.51;68.90
69173;BME280;56280;49.662;8.408;2023-03-31T11:50:53;99071.41;;;14.64;69.82
69173;BME280;56280;49.662;8.408;2023-03-31T11:53:23;99076.16;;;14.83;67.84
69173;BME280;56280;49.662;8.408;2023-03-31T11:55:54;99049.69;;;14.44;67.92
69173;BME280;56280;49.662;8.408;2023-03-31T12:00:59;99066.13;;;14.70;68.27
69173;BME280;56280;49.662;8.408;2023-03-31T12:03:40;99067.09;;;14.84;67.79
69173;BME280;56280;49.662;8.408;2023-03-31T12:06:14;99058.81;;;14.79;68.01
69173;BME280;56280;49.662;8.408;2023-03-31T12:14:43;99026.53;;;14.95;68.06
69173;BME280;56280;49.662;8.408;2023-03-31T12:17:12;98999.63;;;14.82;67.77
69173;BME280;56280;49.662;8.408;2023-03-31T12:22:22;99008.72;;;15.03;67.77
69173;BME280;56280;49.662;8.408;2023-03-31T12:24:50;98989.69;;;14.76;66.89
69173;BME280;56280;49.662;8.408;2023-03-31T12:27:29;99010.09;;;14.99;67.35
69173;BME280;56280;49.662;8.408;2023-03-31T12:30:14;99000.25;;;15.21;66.34
69173;BME280;56280;49.662;8.408;2023-03-31T12:32:46;98993.69;;;15.45;64.16
69173;BME280;56280;49.662;8.408;2023-03-31T12:41:03;99019.03;;;15.27;63.39
69173;BME280;56280;49.662;8.408;2023-03-31T12:43:50;99003.06;;;15.34;62.28
69173;BME280;56280;49.662;8.408;2023-03-31T12:57:49;98994.56;;;16.02;60.06
69173;BME280;56280;49.662;8.408;2023-03-31T13:00:21;99014.00;;;15.82;58.10
69173;BME280;56280;49.662;8.408;2023-03-31T13:02:48;99013.56;;;15.79;58.92
69173;BME280;56280;49.662;8.408;2023-03-31T13:08:07;98998.50;;;15.28;59.49
69173;BME280;56280;49.662;8.408;2023-03-31T13:10:53;99009.75;;;15.23;60.51
69173;BME280;56280;49.662;8.408;2023-03-31T13:13:20;98984.28;;;15.06;60.31
69173;BME280;56280;49.662;8.408;2023-03-31T13:15:55;99013.31;;;15.09;60.49
69173;BME280;56280;49.662;8.408;2023-03-31T13:18:21;99012.38;;;15.17;61.71
69173;BME280;56280;49.662;8.408;2023-03-31T13:21:00;99015.44;;;14.99;64.02
69173;BME280;56280;49.662;8.408;2023-03-31T13:23:29;99029.19;;;14.95;64.18
69173;BME280;56280;49.662;8.408;2023-03-31T13:25:57;99018.78;;;15.01;63.44
69173;BME280;56280;49.662;8.408;2023-03-31T13:28:26;99027.31;;;14.89;63.24
69173;BME280;56280;49.662;8.408;2023-03-31T13:30:58;99040.75;;;14.96;63.58
69173;BME280;56280;49.662;8.408;2023-03-31T13:33:42;99047.56;;;14.84;64.68
69173;BME280;56280;49.662;8.408;2023-03-31T13:42:17;99037.66;;;14.63;67.10
69173;BME280;56280;49.662;8.408;2023-03-31T13:58:22;99000.66;;;15.39;62.98
69173;BME280;56280;49.662;8.408;2023-03-31T14:06:36;98986.06;;;15.20;63.62
69173;BME280;56280;49.662;8.408;2023-03-31T14:09:08;98979.94;;;15.26;63.07
69173;BME280;56280;49.662;8.408;2023-03-31T14:11:34;98963.63;;;15.00;62.73
69173;BME280;56280;49.662;8.408;2023-03-31T14:14:13;98970.22;;;15.47;63.15
69173;BME280;56280;49.662;8.408;2023-03-31T14:16:43;98954.56;;;15.44;61.85
69173;BME280;56280;49.662;8.408;2023-03-31T14:31:10;98979.69;;;15.71;59.07
69173;BME280;56280;49.662;8.408;2023-03-31T14:36:21;98959.00;;;15.80;58.80
69173;BME280;56280;49.662;8.408;2023-03-31T14:38:52;98955.78;;;15.69;58.65
69173;BME280;56280;49.662;8.408;2023-03-31T14:41:18;98963.56;;;15.64;58.86
69173;BME280;56280;49.662;8.408;2023-03-31T14:43:49;98965.38;;;15.57;58.02
69173;BME280;56280;49.662;8.408;2023-03-31T14:46:19;98951.53;;;15.25;59.70
69173;BME280;56280;49.662;8.408;2023-03-31T14:48:47;98948.97;;;15.39;58.45
69173;BME280;56280;49.662;8.408;2023-03-31T14:51:14;98964.78;;;15.34;58.69
69173;BME280;56280;49.662;8.408;2023-03-31T14:53:41;99037.00;;;15.12;59.91
69173;BME280;56280;49.662;8.408;2023-03-31T14:56:16;99095.81;;;14.61;63.83
69173;BME280;56280;49.662;8.408;2023-03-31T14:58:49;99056.63;;;13.70;65.95
69173;BME280;56280;49.662;8.408;2023-03-31T15:01:29;99028.81;;;13.41;68.40
69173;BME280;56280;49.662;8.408;2023-03-31T15:03:58;99051.91;;;13.26;69.37
69173;BME280;56280;49.662;8.408;2023-03-31T15:06:25;99011.59;;;12.66;71.61
69173;BME280;56280;49.662;8.408;2023-03-31T15:08:53;98998.19;;;11.79;75.05
69173;BME280;56280;49.662;8.408;2023-03-31T15:11:20;99003.69;;;11.69;77.47
69173;BME280;56280;49.662;8.408;2023-03-31T15:13:56;99001.84;;;11.70;78.25
69173;BME280;56280;49.662;8.408;2023-03-31T15:16:44;99001.66;;;11.96;78.78
69173;BME280;56280;49.662;8.408;2023-03-31T15:19:21;98985.59;;;11.56;79.04
69173;BME280;56280;49.662;8.408;2023-03-31T15:22:07;98989.00;;;11.90;79.63
69173;BME280;56280;49.662;8.408;2023-03-31T15:24:33;98976.06;;;12.03;79.77
69173;BME280;56280;49.662;8.408;2023-03-31T15:29:37;98985.19;;;12.48;79.48
69173;BME280;56280;49.662;8.408;2023-03-31T15:32:07;98965.59;;;12.72;79.39
69173;BME280;56280;49.662;8.408;2023-03-31T15:34:36;98971.16;;;12.86;78.51
69173;BME280;56280;49.662;8.408;2023-03-31T15:37:01;98976.09;;;12.97;78.71
69173;BME280;56280;49.662;8.408;2023-03-31T15:39:31;98994.63;;;13.13;78.48